Time;durP1;ratioP1;P1;durP2;ratioP2;P2;SDS_P1;SDS_P2;PMS_P1;PMS_P2;Temp;Humidity;BMP_temperature;BMP_pressure;BME280_temperature;BME280_humidity;BME280_pressure;Samples;Min_cycle;Max_cycle;Signal;HPM_P1;HPM_P2
2022/02/12 00:03:01;;;;;;;1.77;1.30;;;17.50;63.20;;;;;;10514518;28;20234;-70
2022/02/12 00:08:24;;;;;;;2.40;1.43;;;17.50;63.20;;;;;;10530895;28;20188;-70
2022/02/12 00:13:46;;;;;;;2.13;1.37;;;17.50;63.20;;;;;;10500726;28;20729;-70
2022/02/12 00:19:08;;;;;;;3.20;1.70;;;17.50;63.20;;;;;;10524805;28;20219;-70
2022/02/12 00:24:32;;;;;;;3.17;1.60;;;17.50;63.20;;;;;;10530252;28;20223;-70
2022/02/12 00:29:54;;;;;;;4.07;1.57;;;17.50;63.10;;;;;;10528441;28;20196;-69
2022/02/12 00:35:16;;;;;;;1.73;1.27;;;17.50;63.10;;;;;;10520408;28;20191;-70
2022/02/12 00:40:39;;;;;;;2.93;1.40;;;17.50;63.00;;;;;;10529621;28;20226;-69
2022/02/12 00:46:02;;;;;;;1.63;1.23;;;17.40;63.00;;;;;;10519368;28;20722;-69
2022/02/12 00:51:25;;;;;;;2.77;1.60;;;17.40;63.00;;;;;;10512540;28;20212;-69
2022/02/12 00:56:49;;;;;;;2.00;1.40;;;17.40;63.00;;;;;;10503431;28;20192;-69
2022/02/12 01:02:11;;;;;;;1.47;1.10;;;17.40;63.00;;;;;;10497527;28;20219;-70
2022/02/12 01:07:34;;;;;;;2.40;1.60;;;17.40;62.90;;;;;;10496632;28;20807;-69
2022/02/12 01:12:57;;;;;;;2.23;1.43;;;17.40;62.90;;;;;;10493783;28;20204;-70
2022/02/12 01:18:19;;;;;;;1.77;1.33;;;17.40;62.90;;;;;;10515205;28;20215;-69
2022/02/12 01:23:41;;;;;;;2.03;1.30;;;17.40;63.10;;;;;;10539152;28;20221;-70
2022/02/12 01:29:05;;;;;;;2.23;1.17;;;17.40;62.90;;;;;;10537800;28;20195;-69
2022/02/12 01:34:27;;;;;;;2.10;1.30;;;17.40;62.90;;;;;;10537271;28;20801;-69
2022/02/12 01:39:49;;;;;;;2.87;1.40;;;17.40;62.80;;;;;;10500889;28;20212;-70
2022/02/12 01:45:13;;;;;;;2.70;1.53;;;17.40;62.80;;;;;;10525852;28;20198;-69
2022/02/12 01:50:35;;;;;;;1.83;1.27;;;17.40;62.80;;;;;;10525242;28;20216;-70
2022/02/12 01:55:58;;;;;;;1.87;1.20;;;17.40;62.80;;;;;;10509636;28;20197;-69
2022/02/12 02:01:21;;;;;;;3.10;1.53;;;17.40;62.70;;;;;;10518776;28;20224;-69
2022/02/12 02:06:43;;;;;;;1.60;1.20;;;17.40;62.70;;;;;;10529169;28;20237;-69
2022/02/12 02:12:06;;;;;;;2.33;1.50;;;17.40;62.70;;;;;;10519411;28;20214;-69
2022/02/12 02:17:29;;;;;;;1.53;1.17;;;17.40;62.70;;;;;;10521224;28;20196;-69
2022/02/12 02:22:54;;;;;;;3.30;1.40;;;17.40;62.80;;;;;;10493303;28;20714;-70
2022/02/12 02:28:16;;;;;;;2.30;1.40;;;17.40;62.70;;;;;;10495119;28;20188;-70
2022/02/12 02:33:38;;;;;;;3.20;1.43;;;17.40;62.70;;;;;;10496191;28;20227;-69
2022/02/12 02:39:02;;;;;;;2.13;1.30;;;17.40;62.60;;;;;;10529888;28;20219;-69
2022/02/12 02:44:24;;;;;;;2.83;1.27;;;17.40;62.50;;;;;;10494156;28;20215;-69
2022/02/12 02:49:46;;;;;;;1.73;1.17;;;17.40;62.60;;;;;;10503285;28;20192;-70
2022/02/12 03:00:49;;;;;;;4.07;1.40;;;17.40;62.50;;;;;;10492591;28;20220;-70
2022/02/12 03:06:13;;;;;;;1.90;1.10;;;17.40;62.60;;;;;;10493818;28;20188;-70
2022/02/12 03:11:36;;;;;;;2.17;1.27;;;17.40;62.60;;;;;;10533782;28;20207;-71
2022/02/12 03:16:58;;;;;;;1.23;0.93;;;17.40;62.60;;;;;;10533865;28;20192;-69
2022/02/12 03:22:22;;;;;;;2.20;1.00;;;17.40;62.60;;;;;;10516672;28;20221;-70
2022/02/12 03:27:51;;;;;;;1.90;1.13;;;17.40;62.60;;;;;;10533292;28;20278;-69
2022/02/12 03:33:14;;;;;;;2.93;1.30;;;17.40;62.60;;;;;;10493049;28;20225;-69
2022/02/12 03:38:39;;;;;;;2.17;1.17;;;17.40;62.40;;;;;;10522213;28;20212;-69
2022/02/12 03:44:02;;;;;;;2.13;1.20;;;17.40;62.50;;;;;;10493941;28;20223;-70
2022/02/12 03:49:24;;;;;;;2.27;1.00;;;17.40;62.50;;;;;;10497945;28;20196;-70
2022/02/12 03:54:46;;;;;;;1.20;0.90;;;17.40;62.50;;;;;;10519748;28;20216;-69
2022/02/12 04:00:11;;;;;;;2.10;1.00;;;17.40;62.50;;;;;;10523811;28;20252;-71
2022/02/12 04:05:33;;;;;;;1.47;1.00;;;17.40;62.50;;;;;;10493419;28;20194;-70
2022/02/12 04:10:55;;;;;;;3.93;1.43;;;17.30;62.40;;;;;;10531168;28;20212;-69
2022/02/12 04:16:19;;;;;;;2.23;1.20;;;17.30;62.50;;;;;;10530946;28;20203;-70
2022/02/12 04:21:41;;;;;;;2.13;0.80;;;17.40;62.40;;;;;;10527739;28;20227;-69
2022/02/12 04:27:04;;;;;;;1.87;0.93;;;17.30;62.40;;;;;;10529709;28;20195;-69
2022/02/12 04:32:27;;;;;;;1.50;0.80;;;17.30;62.40;;;;;;10530222;28;20825;-69
2022/02/12 04:37:49;;;;;;;1.47;0.87;;;17.40;62.40;;;;;;10523422;28;20203;-69
2022/02/12 04:43:11;;;;;;;2.00;1.13;;;17.30;62.30;;;;;;10504689;28;20220;-69
2022/02/12 04:48:35;;;;;;;1.43;0.83;;;17.30;62.20;;;;;;10490851;28;20207;-69
2022/02/12 04:53:58;;;;;;;3.70;1.07;;;17.30;62.30;;;;;;10490126;28;20614;-69
2022/02/12 04:59:22;;;;;;;1.80;1.03;;;17.30;62.20;;;;;;10491771;28;20212;-70
2022/02/12 05:04:45;;;;;;;1.30;0.97;;;17.30;62.20;;;;;;10529395;28;20308;-70
2022/02/12 05:10:08;;;;;;;1.80;0.97;;;17.30;62.20;;;;;;10498078;28;20196;-69
2022/02/12 05:15:31;;;;;;;2.00;1.10;;;17.30;62.20;;;;;;10529694;28;20613;-71
2022/02/12 05:20:54;;;;;;;1.30;1.03;;;17.30;62.20;;;;;;10531623;28;20215;-70
2022/02/12 05:26:16;;;;;;;1.70;1.00;;;17.30;62.10;;;;;;10529600;28;20199;-70
2022/02/12 05:31:38;;;;;;;2.10;1.00;;;17.30;62.10;;;;;;10529177;28;20344;-69
2022/02/12 05:37:02;;;;;;;2.47;1.00;;;17.30;62.10;;;;;;10523560;28;20207;-70
2022/02/12 05:42:24;;;;;;;2.40;1.10;;;17.30;62.00;;;;;;10489428;28;20224;-70
2022/02/12 05:47:46;;;;;;;1.60;0.87;;;17.40;62.20;;;;;;10515144;28;20199;-69
2022/02/12 05:53:10;;;;;;;2.03;1.00;;;17.40;62.00;;;;;;10507956;28;20212;-69
2022/02/12 05:58:32;;;;;;;1.50;0.73;;;17.40;62.00;;;;;;10489556;28;20201;-69
2022/02/12 06:03:54;;;;;;;2.10;1.10;;;17.40;62.10;;;;;;10513557;28;20224;-70
2022/02/12 06:09:17;;;;;;;1.37;0.83;;;17.40;62.00;;;;;;10495165;28;20196;-71
2022/02/12 06:14:39;;;;;;;2.07;1.03;;;17.40;62.00;;;;;;10495743;28;20594;-70
2022/02/12 06:20:02;;;;;;;2.00;0.97;;;17.40;62.00;;;;;;10532946;28;20643;-69
2022/02/12 06:25:25;;;;;;;3.00;1.17;;;17.40;62.00;;;;;;10537271;28;20203;-69
2022/02/12 06:30:47;;;;;;;1.83;0.93;;;17.40;62.00;;;;;;10505351;28;20223;-69
2022/02/12 06:36:09;;;;;;;1.97;1.03;;;17.40;61.90;;;;;;10496403;28;20196;-68
2022/02/12 06:41:33;;;;;;;2.27;1.03;;;17.40;62.10;;;;;;10508249;28;20267;-70
2022/02/12 06:46:55;;;;;;;1.37;0.70;;;17.40;61.90;;;;;;10530142;28;20195;-69
2022/02/12 06:52:17;;;;;;;1.83;1.07;;;17.40;61.90;;;;;;10502564;28;20587;-69
2022/02/12 06:57:41;;;;;;;2.07;0.93;;;17.40;61.90;;;;;;10494434;28;20670;-71
2022/02/12 07:03:03;;;;;;;1.57;0.90;;;17.40;61.80;;;;;;10513579;28;20239;-69
2022/02/12 07:08:25;;;;;;;1.30;0.97;;;17.40;61.80;;;;;;10521263;28;20207;-68
2022/02/12 07:13:49;;;;;;;2.00;0.93;;;17.30;61.70;;;;;;10508823;28;20208;-68
2022/02/12 07:19:11;;;;;;;2.10;0.90;;;17.40;61.90;;;;;;10534065;28;20195;-69
2022/02/12 07:24:33;;;;;;;2.73;1.10;;;17.40;61.80;;;;;;10530235;28;20212;-68
2022/02/12 07:29:56;;;;;;;3.30;1.17;;;17.40;61.60;;;;;;10525533;28;20197;-69
2022/02/12 07:35:19;;;;;;;3.03;1.10;;;17.40;61.60;;;;;;10492739;28;20199;-68
2022/02/12 07:40:41;;;;;;;2.30;0.83;;;17.40;61.40;;;;;;10515917;28;20222;-69
2022/02/12 07:46:04;;;;;;;1.67;0.90;;;17.40;61.60;;;;;;10506705;28;20690;-69
2022/02/12 07:51:27;;;;;;;1.50;1.00;;;17.40;61.50;;;;;;10509702;28;20208;-69
2022/02/12 07:56:53;;;;;;;2.10;1.00;;;17.40;61.60;;;;;;10508316;28;20278;-69
2022/02/12 08:02:17;;;;;;;1.97;0.90;;;17.30;61.70;;;;;;10524125;28;20697;-69
2022/02/12 08:07:39;;;;;;;2.93;1.13;;;17.40;61.80;;;;;;10510780;28;20206;-68
2022/02/12 08:13:03;;;;;;;1.57;1.00;;;17.30;61.60;;;;;;10503620;28;20640;-69
2022/02/12 08:18:26;;;;;;;1.87;0.87;;;17.30;61.60;;;;;;10505404;28;20218;-69
2022/02/12 08:23:48;;;;;;;2.37;0.93;;;17.30;61.70;;;;;;10497273;28;20220;-69
2022/02/12 08:29:11;;;;;;;3.37;1.10;;;17.30;61.60;;;;;;10490206;28;20219;-69
2022/02/12 08:34:36;;;;;;;2.00;1.10;;;17.30;61.70;;;;;;10504981;28;20316;-69
2022/02/12 08:39:58;;;;;;;2.17;0.90;;;17.30;61.70;;;;;;10519344;28;20216;-69
2022/02/12 08:45:20;;;;;;;1.73;0.97;;;17.30;61.70;;;;;;10521900;28;20196;-69
2022/02/12 08:50:44;;;;;;;1.97;1.00;;;17.30;61.80;;;;;;10503365;28;20215;-68
2022/02/12 08:56:06;;;;;;;1.77;1.00;;;17.30;61.70;;;;;;10489319;28;20322;-69
2022/02/12 09:01:28;;;;;;;2.03;0.90;;;17.40;61.90;;;;;;10507435;28;20220;-69
2022/02/12 09:06:52;;;;;;;1.57;0.90;;;17.30;61.80;;;;;;10490515;28;20193;-69
2022/02/12 09:12:14;;;;;;;2.13;0.90;;;17.40;61.90;;;;;;10491036;28;20215;-69
2022/02/12 09:17:36;;;;;;;3.13;1.30;;;17.30;61.80;;;;;;10495354;28;20187;-69
2022/02/12 09:23:00;;;;;;;1.87;0.90;;;17.40;61.90;;;;;;10499616;28;20234;-69
2022/02/12 09:28:22;;;;;;;3.73;1.13;;;17.40;61.90;;;;;;10519196;28;20204;-69
2022/02/12 09:33:44;;;;;;;1.63;0.90;;;17.40;61.90;;;;;;10517060;28;20219;-69
2022/02/12 09:39:08;;;;;;;1.33;0.87;;;17.30;61.80;;;;;;10527285;28;20704;-69
2022/02/12 09:44:30;;;;;;;2.37;1.00;;;17.40;62.30;;;;;;10524584;28;20192;-69
2022/02/12 09:49:56;;;;;;;1.83;0.93;;;17.40;62.10;;;;;;10498507;28;20201;-69
2022/02/12 09:55:20;;;;;;;1.80;0.93;;;17.40;62.10;;;;;;10493932;28;20199;-69
2022/02/12 10:00:42;;;;;;;3.40;1.00;;;17.40;61.90;;;;;;10495491;28;20220;-69
2022/02/12 10:06:05;;;;;;;3.63;1.00;;;17.40;61.80;;;;;;10507392;28;20204;-69
2022/02/12 10:11:40;;;;;;;1.70;0.73;;;17.40;61.80;;;;;;10496882;28;20220;-68
2022/02/12 10:17:04;;;;;;;2.90;1.00;;;17.40;61.60;;;;;;10498647;28;20207;-69
2022/02/12 10:22:26;;;;;;;2.07;0.93;;;17.40;61.90;;;;;;10529195;28;20865;-69
2022/02/12 10:27:51;;;;;;;3.07;1.10;;;17.40;61.80;;;;;;10514061;28;20188;-69
2022/02/12 10:33:14;;;;;;;1.70;0.80;;;17.40;61.80;;;;;;10527225;28;20303;-68
2022/02/12 10:38:36;;;;;;;1.67;0.93;;;17.40;61.90;;;;;;10494521;28;20197;-69
2022/02/12 10:44:00;;;;;;;0.77;0.70;;;17.50;62.00;;;;;;10509586;28;20224;-69
2022/02/12 10:49:24;;;;;;;1.33;0.70;;;17.50;62.00;;;;;;10525716;28;20203;-70
2022/02/12 10:54:48;;;;;;;1.73;0.77;;;17.40;62.00;;;;;;10534784;28;20226;-69
2022/02/12 11:00:13;;;;;;;2.53;1.00;;;17.50;62.00;;;;;;10534246;28;20701;-69
2022/02/12 11:05:35;;;;;;;2.73;1.10;;;17.50;62.00;;;;;;10518161;28;20188;-69
2022/02/12 11:11:00;;;;;;;1.87;0.90;;;17.40;61.90;;;;;;10534577;28;20218;-69
2022/02/12 11:16:23;;;;;;;3.40;0.90;;;17.40;61.90;;;;;;10525158;28;20196;-70
2022/02/12 11:21:46;;;;;;;2.17;0.90;;;17.40;62.00;;;;;;10493634;28;20220;-69
2022/02/12 11:27:22;;;;;;;2.13;0.80;;;17.40;62.00;;;;;;10492195;28;20207;-69
2022/02/12 11:32:46;;;;;;;2.20;0.80;;;17.50;61.90;;;;;;10491746;28;20220;-69
2022/02/12 11:38:33;;;;;;;1.70;0.80;;;17.40;61.90;;;;;;10521420;28;20207;-69
2022/02/12 11:43:56;;;;;;;1.87;0.90;;;17.50;61.70;;;;;;10532632;28;20219;-69
2022/02/12 11:49:27;;;;;;;1.00;0.70;;;17.40;61.90;;;;;;10519116;28;20195;-70
2022/02/12 11:55:00;;;;;;;1.60;0.70;;;17.40;61.90;;;;;;10510309;28;20208;-69
2022/02/12 12:00:39;;;;;;;1.37;0.70;;;17.50;61.90;;;;;;10521622;28;20764;-69
2022/02/12 12:06:21;;;;;;;1.20;0.90;;;17.50;61.80;;;;;;10519088;28;20722;-69
2022/02/12 12:12:13;;;;;;;1.60;0.80;;;17.50;61.70;;;;;;10515790;28;20215;-69
2022/02/12 12:17:36;;;;;;;1.33;0.70;;;17.50;61.60;;;;;;10503185;28;20579;-69
2022/02/12 12:23:03;;;;;;;1.93;0.97;;;17.40;62.00;;;;;;10495280;28;20207;-70
2022/02/12 12:28:30;;;;;;;2.83;0.70;;;17.50;62.00;;;;;;10500330;28;20651;-68
2022/02/12 12:33:53;;;;;;;1.10;0.70;;;17.50;61.90;;;;;;10489872;28;20227;-69
2022/02/12 12:39:16;;;;;;;1.50;0.80;;;17.50;61.90;;;;;;10508808;28;20210;-69
2022/02/12 12:44:39;;;;;;;2.93;0.83;;;17.50;61.90;;;;;;10531190;28;20216;-69
2022/02/12 12:50:04;;;;;;;2.13;0.77;;;17.40;61.90;;;;;;10519343;28;20201;-70
2022/02/12 12:55:27;;;;;;;2.00;0.93;;;17.40;61.80;;;;;;10518075;28;20792;-69
2022/02/12 13:00:49;;;;;;;0.90;0.70;;;17.40;61.80;;;;;;10530090;28;20717;-69
2022/02/12 13:06:14;;;;;;;1.07;0.70;;;17.40;61.90;;;;;;10502082;28;20231;-68
2022/02/12 13:11:39;;;;;;;1.93;0.80;;;17.50;61.90;;;;;;10489931;28;20312;-69
2022/02/12 13:17:01;;;;;;;1.60;0.73;;;17.50;61.90;;;;;;10488824;28;20742;-69
2022/02/12 13:22:23;;;;;;;2.10;0.90;;;17.50;61.80;;;;;;10488699;28;20247;-68
2022/02/12 13:27:49;;;;;;;1.90;0.93;;;17.40;61.80;;;;;;10489063;28;20267;-70
2022/02/12 13:33:14;;;;;;;2.53;0.90;;;17.50;62.20;;;;;;10500893;28;20253;-68
2022/02/12 13:38:37;;;;;;;3.17;0.90;;;17.50;62.20;;;;;;10513763;28;20203;-67
2022/02/12 13:44:01;;;;;;;3.53;0.90;;;17.50;62.20;;;;;;10501453;28;20252;-66
2022/02/12 13:49:26;;;;;;;2.20;0.70;;;17.50;62.20;;;;;;10521837;28;20926;-66
2022/02/12 13:55:01;;;;;;;1.37;0.80;;;17.50;62.20;;;;;;10499669;28;20216;-66
2022/02/12 14:00:25;;;;;;;2.07;0.90;;;17.60;62.10;;;;;;10517824;28;20204;-67
2022/02/12 14:05:47;;;;;;;1.63;1.00;;;17.50;62.20;;;;;;10524635;28;20196;-64
2022/02/12 14:11:11;;;;;;;3.93;0.90;;;17.50;62.20;;;;;;10518753;28;20675;-65
2022/02/12 14:16:34;;;;;;;2.20;0.70;;;17.60;62.30;;;;;;10487777;28;20193;-65
2022/02/12 14:21:56;;;;;;;2.60;1.10;;;17.60;62.80;;;;;;10499821;28;20219;-65
2022/02/12 14:27:19;;;;;;;2.70;1.13;;;17.50;62.10;;;;;;10535135;28;20195;-65
2022/02/12 14:32:42;;;;;;;2.83;1.07;;;17.50;62.20;;;;;;10534427;28;20223;-65
2022/02/12 14:38:04;;;;;;;2.93;1.23;;;17.60;62.20;;;;;;10510172;28;20196;-69
2022/02/12 14:43:29;;;;;;;2.90;1.40;;;17.50;62.10;;;;;;10517118;28;20266;-68
2022/02/12 14:48:53;;;;;;;2.40;1.10;;;17.50;61.90;;;;;;10496083;28;20203;-67
2022/02/12 14:54:15;;;;;;;5.05;1.48;;;17.60;62.10;;;;;;10519862;28;20439;-68
2022/02/12 14:59:37;;;;;;;2.67;0.93;;;18.40;59.30;;;;;;10517778;28;20609;-69
2022/02/12 15:05:02;;;;;;;4.80;1.20;;;17.90;61.00;;;;;;10510352;28;20234;-67
2022/02/12 15:10:24;;;;;;;2.50;1.10;;;17.70;62.00;;;;;;10530312;28;20193;-68
2022/02/12 15:15:48;;;;;;;2.33;1.17;;;17.60;61.50;;;;;;10492393;28;20196;-69
2022/02/12 15:21:12;;;;;;;3.00;1.00;;;17.60;61.70;;;;;;10493211;28;20216;-68
2022/02/12 15:26:34;;;;;;;2.40;0.80;;;17.60;61.80;;;;;;10493573;28;20242;-68
2022/02/12 15:31:56;;;;;;;1.90;0.80;;;17.50;62.40;;;;;;10506086;28;20212;-69
2022/02/12 15:37:20;;;;;;;2.40;1.03;;;17.50;61.80;;;;;;10524795;28;20188;-67
2022/02/12 15:42:42;;;;;;;1.30;0.87;;;17.50;61.90;;;;;;10502352;28;20230;-68
2022/02/12 15:48:05;;;;;;;1.23;0.90;;;17.50;61.90;;;;;;10520051;28;20200;-69
2022/02/12 15:53:28;;;;;;;3.90;1.03;;;17.50;61.90;;;;;;10492238;28;20223;-69
2022/02/12 15:58:52;;;;;;;1.40;0.80;;;17.50;61.90;;;;;;10512780;28;20318;-69
2022/02/12 16:04:15;;;;;;;1.50;0.83;;;17.40;61.80;;;;;;10495994;28;20725;-68
2022/02/12 16:09:38;;;;;;;2.00;0.80;;;17.40;61.90;;;;;;10491773;28;20200;-67
2022/02/12 16:15:00;;;;;;;1.10;0.90;;;17.50;62.00;;;;;;10506947;28;20216;-68
2022/02/12 16:20:24;;;;;;;1.00;0.70;;;17.40;61.80;;;;;;10515269;28;20196;-69
2022/02/12 16:25:48;;;;;;;1.53;1.10;;;17.40;61.90;;;;;;10512611;28;20422;-69
2022/02/12 16:31:10;;;;;;;1.90;0.87;;;18.10;60.40;;;;;;10491669;28;20443;-69
2022/02/12 16:36:34;;;;;;;1.43;0.90;;;17.70;61.60;;;;;;10492091;28;20211;-69
2022/02/12 16:41:58;;;;;;;1.77;0.93;;;17.60;62.00;;;;;;10513101;28;20227;-69
2022/02/12 16:47:20;;;;;;;2.30;0.80;;;17.60;62.20;;;;;;10501265;28;20245;-69
2022/02/12 16:52:43;;;;;;;1.90;1.00;;;17.50;62.20;;;;;;10521640;28;20226;-70
2022/02/12 16:58:06;;;;;;;1.27;0.70;;;17.60;62.30;;;;;;10515316;28;20214;-69
2022/02/12 17:03:28;;;;;;;1.47;0.70;;;17.50;62.20;;;;;;10506556;28;20220;-69
2022/02/12 17:08:52;;;;;;;1.73;0.97;;;17.60;62.20;;;;;;10513199;28;20203;-70
2022/02/12 17:14:16;;;;;;;2.43;1.00;;;17.60;62.20;;;;;;10505475;28;20734;-70
2022/02/12 17:19:38;;;;;;;1.83;1.30;;;17.60;62.20;;;;;;10490457;28;20215;-69
2022/02/12 17:25:04;;;;;;;1.10;0.87;;;17.50;62.20;;;;;;10521195;28;20223;-69
2022/02/12 17:30:28;;;;;;;1.10;0.87;;;17.60;62.20;;;;;;10508942;28;20206;-70
2022/02/12 17:35:51;;;;;;;2.40;1.00;;;17.60;62.20;;;;;;10518508;28;20192;-70
2022/02/12 17:41:14;;;;;;;2.23;1.10;;;17.60;62.10;;;;;;10525683;28;20230;-69
2022/02/12 17:46:38;;;;;;;1.57;0.80;;;17.50;62.00;;;;;;10524795;28;20270;-69
2022/02/12 17:52:02;;;;;;;1.07;0.80;;;17.60;62.10;;;;;;10496215;28;20217;-70
2022/02/12 17:57:26;;;;;;;2.13;1.10;;;17.50;62.00;;;;;;10510407;28;20436;-68
2022/02/12 18:02:51;;;;;;;2.13;1.07;;;17.80;61.40;;;;;;10519124;28;20473;-68
2022/02/12 18:08:14;;;;;;;1.10;0.90;;;17.70;61.70;;;;;;10491515;28;20615;-69
2022/02/12 18:13:36;;;;;;;1.53;1.07;;;17.60;61.90;;;;;;10515253;28;20276;-66
2022/02/12 18:18:59;;;;;;;2.20;0.90;;;17.60;61.50;;;;;;10532159;28;20192;-68
2022/02/12 18:24:22;;;;;;;1.10;0.60;;;17.50;61.50;;;;;;10521787;28;20238;-68
2022/02/12 18:29:44;;;;;;;1.90;0.97;;;17.50;61.90;;;;;;10529683;28;20207;-68
2022/02/12 18:35:09;;;;;;;2.53;0.80;;;17.50;62.00;;;;;;10529250;28;20265;-68
2022/02/12 18:40:31;;;;;;;2.03;0.80;;;17.60;62.10;;;;;;10524151;28;20224;-68
2022/02/12 18:45:53;;;;;;;1.87;0.80;;;17.50;61.90;;;;;;10490201;28;20258;-68
2022/02/12 18:51:16;;;;;;;1.40;0.80;;;17.60;61.90;;;;;;10506280;28;20234;-68
2022/02/12 18:56:39;;;;;;;1.83;0.80;;;17.60;61.90;;;;;;10504189;28;20211;-68
2022/02/12 19:02:01;;;;;;;1.00;0.87;;;17.60;61.90;;;;;;10514006;28;20225;-68
2022/02/12 19:07:25;;;;;;;3.63;0.70;;;17.50;61.90;;;;;;10488168;28;20199;-69
2022/02/12 19:12:47;;;;;;;1.53;0.70;;;17.60;61.90;;;;;;10513531;28;20215;-69
2022/02/12 19:18:09;;;;;;;2.77;1.40;;;17.60;61.90;;;;;;10532584;28;20686;-69
2022/02/12 19:23:33;;;;;;;2.13;0.97;;;17.60;61.90;;;;;;10522830;28;20212;-69
2022/02/12 19:28:55;;;;;;;1.33;0.87;;;17.60;61.80;;;;;;10513702;28;20203;-69
2022/02/12 19:34:17;;;;;;;1.07;0.70;;;17.50;61.70;;;;;;10486495;28;20220;-69
2022/02/12 19:39:41;;;;;;;2.77;0.70;;;17.50;62.30;;;;;;10495362;28;20199;-69
2022/02/12 19:45:04;;;;;;;1.87;0.83;;;17.60;61.60;;;;;;10497272;28;20220;-67
2022/02/12 19:50:26;;;;;;;3.00;1.10;;;17.50;61.60;;;;;;10511886;28;20266;-67
2022/02/12 19:55:49;;;;;;;1.00;0.83;;;17.50;61.00;;;;;;10499008;28;20199;-66
2022/02/12 20:01:11;;;;;;;1.93;0.73;;;17.50;60.90;;;;;;10505626;28;20218;-66
2022/02/12 20:06:33;;;;;;;3.40;0.90;;;17.40;61.10;;;;;;10504872;28;20196;-68
2022/02/12 20:11:57;;;;;;;1.30;0.97;;;17.40;61.20;;;;;;10505871;28;20702;-67
2022/02/12 20:17:20;;;;;;;1.83;0.80;;;17.40;61.10;;;;;;10505846;28;20578;-68
2022/02/12 20:22:43;;;;;;;1.33;0.70;;;17.40;61.20;;;;;;10505445;28;20235;-68
2022/02/12 20:28:06;;;;;;;1.60;0.87;;;17.40;61.20;;;;;;10504114;28;20251;-67
2022/02/12 20:33:30;;;;;;;1.87;0.90;;;17.40;61.20;;;;;;10505181;28;20338;-68
2022/02/12 20:38:52;;;;;;;1.87;0.87;;;17.40;61.20;;;;;;10507025;28;20193;-67
2022/02/12 20:44:15;;;;;;;1.47;1.00;;;17.40;61.30;;;;;;10509610;28;20226;-67
2022/02/12 20:49:38;;;;;;;1.37;0.80;;;17.40;61.40;;;;;;10510447;28;20556;-67
2022/02/12 20:55:01;;;;;;;1.67;0.90;;;17.30;61.30;;;;;;10508816;28;20613;-68
2022/02/12 21:00:25;;;;;;;1.00;0.70;;;17.30;61.20;;;;;;10510201;28;20257;-67
2022/02/12 21:05:47;;;;;;;1.77;0.90;;;17.40;61.40;;;;;;10508058;28;20585;-67
2022/02/12 21:11:09;;;;;;;1.90;0.90;;;17.30;61.40;;;;;;10510973;28;20212;-67
2022/02/12 21:16:32;;;;;;;3.23;0.80;;;17.30;61.30;;;;;;10509547;28;20207;-67
2022/02/12 21:21:56;;;;;;;1.20;0.80;;;17.30;61.20;;;;;;10511091;28;20210;-67
2022/02/12 21:27:19;;;;;;;1.50;0.80;;;17.40;61.20;;;;;;10530503;28;20191;-67
2022/02/12 21:32:42;;;;;;;1.07;0.97;;;17.30;61.30;;;;;;10524709;28;20571;-67
2022/02/12 21:38:05;;;;;;;1.67;0.90;;;17.30;61.30;;;;;;10512068;28;20203;-67
2022/02/12 21:43:30;;;;;;;1.43;1.03;;;17.30;61.30;;;;;;10537125;28;20218;-67
2022/02/12 21:48:53;;;;;;;1.30;0.97;;;17.30;61.40;;;;;;10520399;28;20231;-67
2022/02/12 21:54:15;;;;;;;0.80;0.80;;;17.30;61.40;;;;;;10528407;28;20224;-68
2022/02/12 21:59:37;;;;;;;0.73;0.70;;;17.30;61.30;;;;;;10508837;28;20196;-68
2022/02/12 22:05:01;;;;;;;0.93;0.80;;;17.30;61.40;;;;;;10495737;28;20224;-67
2022/02/12 22:10:23;;;;;;;1.07;0.80;;;17.30;61.40;;;;;;10495731;28;20196;-67
2022/02/12 22:15:46;;;;;;;1.60;0.80;;;17.30;61.40;;;;;;10510308;28;20196;-67
2022/02/12 22:21:10;;;;;;;1.03;0.60;;;17.30;61.40;;;;;;10525093;28;20602;-67
2022/02/12 22:26:32;;;;;;;1.47;0.80;;;17.30;61.40;;;;;;10536757;28;20212;-67
2022/02/12 22:31:54;;;;;;;1.53;0.93;;;17.30;61.40;;;;;;10534988;28;20228;-67
2022/02/12 22:37:18;;;;;;;1.10;0.70;;;17.30;61.40;;;;;;10536666;28;20697;-68
2022/02/12 22:42:40;;;;;;;1.17;1.00;;;17.30;61.40;;;;;;10533537;28;20219;-67
2022/02/12 22:48:02;;;;;;;1.30;0.80;;;17.20;61.30;;;;;;10530662;28;20706;-68
2022/02/12 22:53:26;;;;;;;1.10;0.90;;;17.30;61.40;;;;;;10532911;28;20732;-67
2022/02/12 22:58:48;;;;;;;1.93;0.93;;;17.30;61.40;;;;;;10533467;28;20192;-67
2022/02/12 23:04:10;;;;;;;1.47;0.90;;;17.30;61.40;;;;;;10531348;28;20220;-67
2022/02/12 23:09:34;;;;;;;1.73;1.20;;;17.30;61.40;;;;;;10530101;28;20200;-67
2022/02/12 23:14:56;;;;;;;1.43;1.03;;;17.30;61.40;;;;;;10514415;28;20247;-67
2022/02/12 23:20:19;;;;;;;1.70;1.00;;;17.20;61.40;;;;;;10534885;28;20329;-67
2022/02/12 23:25:42;;;;;;;1.30;1.00;;;17.20;61.30;;;;;;10514011;28;20223;-68
2022/02/12 23:31:04;;;;;;;1.67;1.00;;;17.30;61.40;;;;;;10493741;28;20235;-67
2022/02/12 23:36:27;;;;;;;1.57;1.20;;;17.20;61.30;;;;;;10492745;28;20192;-67
2022/02/12 23:41:50;;;;;;;1.20;1.10;;;17.20;61.30;;;;;;10525863;28;20708;-67
2022/02/12 23:47:12;;;;;;;1.57;1.17;;;17.20;61.30;;;;;;10525818;28;20291;-67
2022/02/12 23:52:34;;;;;;;1.23;1.03;;;17.20;61.30;;;;;;10521766;28;20574;-67
2022/02/12 23:57:58;;;;;;;1.57;1.20;;;17.20;61.30;;;;;;10525758;28;20571;-68
